createdAt,value
2017-12-28T00:02:04.570Z,9.87
2017-12-28T00:06:48.086Z,8.67
2017-12-28T00:11:30.762Z,10.93
2017-12-28T00:16:13.498Z,9.03
2017-12-28T00:20:56.182Z,10.23
2017-12-28T00:25:38.923Z,8.40
2017-12-28T00:30:21.674Z,10.53
2017-12-28T00:35:05.241Z,11.83
2017-12-28T00:39:48.094Z,9.20
2017-12-28T00:44:30.990Z,8.83
2017-12-28T00:49:13.871Z,9.30
2017-12-28T00:53:57.016Z,7.73
2017-12-28T00:58:39.945Z,8.87
2017-12-28T01:03:22.832Z,7.40
2017-12-28T01:08:06.441Z,6.87
2017-12-28T01:12:49.261Z,11.60
2017-12-28T01:17:32.218Z,8.17
2017-12-28T01:22:15.049Z,8.27
2017-12-28T01:26:58.590Z,8.93
2017-12-28T01:31:41.351Z,9.37
2017-12-28T01:36:24.207Z,7.33
2017-12-28T01:41:07.007Z,6.83
2017-12-28T01:45:49.909Z,9.13
2017-12-28T01:50:32.834Z,9.03
2017-12-28T01:55:15.799Z,9.10
2017-12-28T01:59:58.824Z,7.83
2017-12-28T02:04:41.741Z,9.50
2017-12-28T02:09:24.705Z,6.67
2017-12-28T02:14:07.600Z,7.57
2017-12-28T02:18:51.192Z,7.87
2017-12-28T02:23:34.042Z,9.40
2017-12-28T02:28:16.918Z,8.57
2017-12-28T02:32:59.721Z,7.13
2017-12-28T02:37:42.554Z,6.57
2017-12-28T02:42:26.171Z,7.53
2017-12-28T02:47:09.025Z,8.90
2017-12-28T02:51:51.906Z,7.30
2017-12-28T02:56:34.799Z,7.77
2017-12-28T03:01:17.657Z,8.40
2017-12-28T03:06:00.350Z,8.40
2017-12-28T03:10:43.048Z,8.77
2017-12-28T03:15:25.811Z,8.90
2017-12-28T03:20:08.620Z,10.13
2017-12-28T03:24:51.393Z,7.30
2017-12-28T03:29:34.332Z,8.60
2017-12-28T03:34:17.223Z,8.57
2017-12-28T03:39:00.144Z,6.63
2017-12-28T03:43:43.035Z,7.20
2017-12-28T03:48:25.825Z,6.70
2017-12-28T03:53:08.808Z,7.20
2017-12-28T03:57:52.157Z,7.17
2017-12-28T04:02:35.139Z,8.10
2017-12-28T04:07:18.100Z,6.33
2017-12-28T04:12:01.818Z,6.17
2017-12-28T04:16:44.617Z,6.40
2017-12-28T04:21:27.516Z,8.20
2017-12-28T04:26:10.399Z,7.57
2017-12-28T04:30:54.956Z,6.73
2017-12-28T04:35:37.788Z,7.47
2017-12-28T04:40:20.608Z,8.53
2017-12-28T04:45:04.522Z,7.30
2017-12-28T04:49:47.406Z,7.90
2017-12-28T04:54:30.217Z,5.00
2017-12-28T04:59:13.927Z,5.47
2017-12-28T05:03:57.311Z,5.17
2017-12-28T05:08:41.229Z,4.97
2017-12-28T05:13:24.858Z,8.33
2017-12-28T05:18:07.712Z,5.93
2017-12-28T05:22:50.556Z,6.80
2017-12-28T05:27:33.467Z,7.83
2017-12-28T05:32:16.358Z,7.60
2017-12-28T05:37:01.268Z,7.67
2017-12-28T05:41:44.252Z,9.60
2017-12-28T05:46:27.250Z,8.87
2017-12-28T05:51:10.306Z,6.90
2017-12-28T05:55:53.304Z,7.73
2017-12-28T06:00:37.644Z,8.13
2017-12-28T06:05:20.522Z,7.60
2017-12-28T06:10:04.261Z,7.87
2017-12-28T06:14:47.711Z,11.60
2017-12-28T06:19:30.780Z,10.60
2017-12-28T06:24:14.630Z,8.23
2017-12-28T06:28:57.519Z,12.97
2017-12-28T06:33:40.668Z,10.97
2017-12-28T06:38:24.482Z,12.17
2017-12-28T06:43:07.320Z,11.27
2017-12-28T06:47:50.298Z,13.00
2017-12-28T06:52:33.212Z,13.97
2017-12-28T06:57:16.084Z,14.17
2017-12-28T07:01:59.513Z,14.77
2017-12-28T07:06:42.387Z,15.37
2017-12-28T07:11:25.180Z,17.43
2017-12-28T07:16:08.186Z,16.60
2017-12-28T07:20:51.831Z,17.23
2017-12-28T07:25:35.507Z,14.13
2017-12-28T07:30:18.891Z,15.33
2017-12-28T07:35:01.793Z,17.07
2017-12-28T07:39:44.612Z,19.37
2017-12-28T07:44:27.795Z,15.83
2017-12-28T07:49:10.810Z,15.43
2017-12-28T07:53:53.804Z,18.67
2017-12-28T07:58:36.790Z,15.50
2017-12-28T08:03:19.706Z,18.87
2017-12-28T08:08:02.820Z,16.53
2017-12-28T08:12:46.460Z,19.83
2017-12-28T08:17:30.061Z,20.50
2017-12-28T08:22:18.769Z,21.97
2017-12-28T08:27:01.852Z,21.23
2017-12-28T08:31:44.759Z,23.40
2017-12-28T08:36:28.285Z,19.77
2017-12-28T08:41:12.054Z,17.70
2017-12-28T08:45:55.044Z,17.37
2017-12-28T08:50:37.828Z,14.00
2017-12-28T08:55:20.718Z,14.40
2017-12-28T09:00:04.428Z,15.47
2017-12-28T09:04:47.308Z,15.50
2017-12-28T09:09:31.377Z,14.77
2017-12-28T09:14:14.299Z,18.17
2017-12-28T09:18:57.827Z,14.47
2017-12-28T09:23:40.780Z,15.77
2017-12-28T09:28:24.354Z,19.13
2017-12-28T09:33:07.354Z,17.27
2017-12-28T09:37:50.434Z,15.97
2017-12-28T09:42:33.208Z,15.60
2017-12-28T09:47:16.031Z,14.60
2017-12-28T09:51:59.503Z,13.57
2017-12-28T09:56:42.361Z,14.70
2017-12-28T10:01:25.193Z,15.73
2017-12-28T10:06:07.985Z,14.30
2017-12-28T10:10:51.470Z,13.77
2017-12-28T10:15:34.186Z,12.00
2017-12-28T10:20:17.213Z,11.53
2017-12-28T10:25:00.019Z,10.70
2017-12-28T10:29:47.478Z,13.23
2017-12-28T10:34:30.380Z,14.57
2017-12-28T10:39:13.233Z,11.10
2017-12-28T10:43:56.004Z,10.47
2017-12-28T10:48:38.826Z,11.07
2017-12-28T10:53:21.608Z,11.13
2017-12-28T10:58:05.343Z,14.17
2017-12-28T11:02:48.124Z,13.27
2017-12-28T11:07:30.979Z,12.47
2017-12-28T11:12:14.582Z,12.83
2017-12-28T11:16:57.402Z,11.47
2017-12-28T11:21:40.239Z,12.23
2017-12-28T11:26:23.754Z,13.37
2017-12-28T11:31:06.615Z,10.47
2017-12-28T11:35:49.420Z,12.67
2017-12-28T11:40:32.296Z,10.60
2017-12-28T11:45:15.222Z,8.60
2017-12-28T11:50:03.490Z,10.63
2017-12-28T11:54:47.459Z,11.60
2017-12-28T11:59:33.134Z,9.93
2017-12-28T12:04:20.422Z,9.93
2017-12-28T12:09:08.130Z,8.93
2017-12-28T12:13:51.087Z,8.07
2017-12-28T12:18:33.950Z,8.83
2017-12-28T12:23:17.033Z,8.30
2017-12-28T12:28:00.396Z,6.67
2017-12-28T12:32:43.408Z,6.37
2017-12-28T12:37:27.025Z,7.77
2017-12-28T12:42:10.631Z,7.20
2017-12-28T12:46:53.311Z,8.03
2017-12-28T12:51:36.102Z,7.73
2017-12-28T12:56:18.918Z,9.10
2017-12-28T13:01:01.785Z,5.17
2017-12-28T13:05:44.993Z,8.27
2017-12-28T13:10:28.642Z,5.53
2017-12-28T13:15:12.870Z,6.67
2017-12-28T13:19:55.783Z,7.93
2017-12-28T13:24:38.832Z,5.93
2017-12-28T13:29:21.635Z,8.50
2017-12-28T13:34:06.755Z,11.43
2017-12-28T13:38:49.882Z,12.07
2017-12-28T13:43:33.088Z,7.43
2017-12-28T13:48:16.027Z,12.50
2017-12-28T13:52:58.734Z,6.30
2017-12-28T13:57:41.898Z,10.87
2017-12-28T14:02:24.760Z,6.93
2017-12-28T14:07:07.697Z,9.30
2017-12-28T14:11:50.419Z,6.37
2017-12-28T14:16:33.788Z,6.07
2017-12-28T14:21:16.703Z,8.50
2017-12-28T14:25:59.617Z,12.83
2017-12-28T14:30:42.356Z,9.77
2017-12-28T14:35:25.243Z,11.67
2017-12-28T14:40:08.011Z,9.00
2017-12-28T14:44:50.869Z,8.53
2017-12-28T14:49:35.412Z,9.33
2017-12-28T14:54:18.243Z,11.93
2017-12-28T14:59:01.061Z,8.93
2017-12-28T15:03:44.162Z,13.63
2017-12-28T15:08:27.016Z,7.13
2017-12-28T15:13:09.957Z,9.27
2017-12-28T15:17:53.492Z,5.83
2017-12-28T15:22:36.360Z,7.83
2017-12-28T15:27:19.124Z,9.93
2017-12-28T15:32:02.078Z,10.60
2017-12-28T15:36:44.855Z,11.77
2017-12-28T15:41:28.468Z,9.83
2017-12-28T15:46:11.192Z,9.43
2017-12-28T15:50:53.954Z,8.03
2017-12-28T15:55:36.780Z,5.33
2017-12-28T16:00:19.962Z,9.00
2017-12-28T16:05:04.481Z,9.70
2017-12-28T16:09:47.297Z,12.40
2017-12-28T16:14:30.686Z,11.37
2017-12-28T16:19:14.172Z,10.87
2017-12-28T16:23:56.899Z,5.30
2017-12-28T16:28:40.757Z,13.83
2017-12-28T16:33:23.559Z,9.13
2017-12-28T16:38:06.334Z,21.10
2017-12-28T16:42:49.128Z,10.33
2017-12-28T16:47:31.950Z,4.77
2017-12-28T16:52:14.800Z,6.73
2017-12-28T16:56:57.696Z,8.87
2017-12-28T17:01:40.615Z,10.67
2017-12-28T17:06:23.346Z,10.30
2017-12-28T17:11:06.140Z,9.33
2017-12-28T17:15:48.977Z,8.73
2017-12-28T17:20:32.186Z,15.83
2017-12-28T17:25:14.959Z,16.20
2017-12-28T17:29:58.473Z,9.37
2017-12-28T17:34:41.309Z,12.20
2017-12-28T17:39:24.202Z,7.03
2017-12-28T17:44:07.102Z,11.60
2017-12-28T17:48:50.055Z,6.23
2017-12-28T17:53:32.978Z,9.10
2017-12-28T17:58:15.993Z,6.73
2017-12-28T18:02:58.666Z,9.40
2017-12-28T18:07:41.479Z,9.47
2017-12-28T18:12:25.023Z,7.90
2017-12-28T18:17:08.062Z,7.93
2017-12-28T18:21:51.174Z,6.70
2017-12-28T18:26:33.950Z,17.03
2017-12-28T18:31:16.964Z,7.40
2017-12-28T18:35:59.916Z,7.97
2017-12-28T18:40:43.334Z,8.50
2017-12-28T18:45:26.152Z,9.23
2017-12-28T18:50:08.944Z,6.67
2017-12-28T18:54:52.505Z,5.80
2017-12-28T18:59:35.283Z,6.73
2017-12-28T19:04:18.064Z,6.97
2017-12-28T19:09:01.076Z,7.50
2017-12-28T19:13:43.836Z,9.43
2017-12-28T19:18:27.543Z,7.40
2017-12-28T19:23:10.333Z,6.97
2017-12-28T19:27:54.067Z,11.10
2017-12-28T19:32:36.875Z,7.60
2017-12-28T19:37:22.208Z,9.70
2017-12-28T19:42:06.558Z,5.13
2017-12-28T19:46:49.655Z,8.30
2017-12-28T19:51:32.563Z,11.37
2017-12-28T19:56:16.081Z,6.13
2017-12-28T20:00:59.004Z,8.80
2017-12-28T20:05:41.892Z,9.00
2017-12-28T20:10:24.704Z,7.50
2017-12-28T20:15:08.271Z,11.67
2017-12-28T20:19:51.154Z,6.67
2017-12-28T20:24:34.102Z,11.23
2017-12-28T20:29:18.673Z,10.20
2017-12-28T20:34:01.466Z,8.90
2017-12-28T20:38:44.219Z,7.93
2017-12-28T20:43:27.144Z,10.33
2017-12-28T20:48:11.752Z,8.53
2017-12-28T20:52:54.664Z,7.67
2017-12-28T20:57:37.593Z,6.93
2017-12-28T21:02:20.366Z,10.03
2017-12-28T21:07:03.279Z,7.77
2017-12-28T21:11:47.017Z,7.77
2017-12-28T21:16:29.891Z,12.33
2017-12-28T21:21:14.899Z,9.37
2017-12-28T21:25:58.490Z,9.07
2017-12-28T21:30:41.259Z,11.40
2017-12-28T21:35:24.809Z,12.83
2017-12-28T21:40:07.583Z,7.33
2017-12-28T21:44:50.370Z,11.60
2017-12-28T21:49:33.892Z,14.30
2017-12-28T21:54:16.821Z,10.00
2017-12-28T21:59:00.499Z,8.20
2017-12-28T22:03:43.476Z,9.07
2017-12-28T22:08:26.491Z,9.83
2017-12-28T22:13:09.247Z,6.97
2017-12-28T22:17:52.103Z,8.03
2017-12-28T22:22:35.453Z,11.63
2017-12-28T22:27:18.662Z,7.30
2017-12-28T22:32:01.666Z,15.67
2017-12-28T22:36:44.519Z,11.53
2017-12-28T22:41:27.425Z,8.20
2017-12-28T22:46:10.319Z,9.47
2017-12-28T22:50:53.917Z,7.80
2017-12-28T22:55:37.424Z,7.87
2017-12-28T23:00:20.101Z,6.83
2017-12-28T23:05:03.842Z,8.33
2017-12-28T23:09:46.730Z,5.83
2017-12-28T23:14:30.295Z,5.17
2017-12-28T23:19:13.882Z,7.20
2017-12-28T23:23:56.654Z,5.80
2017-12-28T23:28:39.340Z,9.67
2017-12-28T23:33:22.477Z,7.60
2017-12-28T23:38:05.421Z,6.33
2017-12-28T23:42:48.159Z,5.37
2017-12-28T23:47:31.210Z,9.30
2017-12-28T23:52:14.062Z,8.93
2017-12-28T23:56:57.694Z,7.40
